sensor_id;sensor_type;location;lat;lon;timestamp;P1;durP1;ratioP1;P2;durP2;ratioP2
41964;SDS011;50120;53.250;8.702;2022-09-01T00:01:37;1.15;;;0.70;;
41964;SDS011;50120;53.250;8.702;2022-09-01T00:04:06;1.25;;;0.77;;
41964;SDS011;50120;53.250;8.702;2022-09-01T00:06:34;0.90;;;0.60;;
41964;SDS011;50120;53.250;8.702;2022-09-01T00:09:03;0.98;;;0.75;;
41964;SDS011;50120;53.250;8.702;2022-09-01T00:11:33;3.60;;;0.70;;
41964;SDS011;50120;53.250;8.702;2022-09-01T00:13:59;1.63;;;0.80;;
41964;SDS011;50120;53.250;8.702;2022-09-01T00:16:26;1.77;;;0.70;;
41964;SDS011;50120;53.250;8.702;2022-09-01T00:18:53;3.10;;;0.90;;
41964;SDS011;50120;53.250;8.702;2022-09-01T00:21:21;3.00;;;0.65;;
41964;SDS011;50120;53.250;8.702;2022-09-01T00:23:53;1.38;;;0.80;;
41964;SDS011;50120;53.250;8.702;2022-09-01T00:26:19;1.00;;;0.70;;
41964;SDS011;50120;53.250;8.702;2022-09-01T00:28:45;2.30;;;0.80;;
41964;SDS011;50120;53.250;8.702;2022-09-01T00:31:11;1.52;;;0.70;;
41964;SDS011;50120;53.250;8.702;2022-09-01T00:33:39;4.03;;;1.00;;
41964;SDS011;50120;53.250;8.702;2022-09-01T00:36:05;1.15;;;0.70;;
41964;SDS011;50120;53.250;8.702;2022-09-01T00:38:31;1.08;;;0.70;;
41964;SDS011;50120;53.250;8.702;2022-09-01T00:40:58;1.15;;;0.90;;
41964;SDS011;50120;53.250;8.702;2022-09-01T00:46:27;1.77;;;0.77;;
41964;SDS011;50120;53.250;8.702;2022-09-01T00:48:55;0.88;;;0.63;;
41964;SDS011;50120;53.250;8.702;2022-09-01T00:51:25;1.02;;;0.80;;
41964;SDS011;50120;53.250;8.702;2022-09-01T00:53:52;1.13;;;0.80;;
41964;SDS011;50120;53.250;8.702;2022-09-01T00:56:20;1.48;;;0.82;;
41964;SDS011;50120;53.250;8.702;2022-09-01T00:58:47;2.13;;;0.90;;
41964;SDS011;50120;53.250;8.702;2022-09-01T01:01:14;0.98;;;0.80;;
41964;SDS011;50120;53.250;8.702;2022-09-01T01:03:40;2.05;;;1.00;;
41964;SDS011;50120;53.250;8.702;2022-09-01T01:06:09;2.92;;;1.02;;
41964;SDS011;50120;53.250;8.702;2022-09-01T01:08:39;1.27;;;0.85;;
41964;SDS011;50120;53.250;8.702;2022-09-01T01:16:37;4.18;;;0.98;;
41964;SDS011;50120;53.250;8.702;2022-09-01T01:19:09;0.90;;;0.80;;
41964;SDS011;50120;53.250;8.702;2022-09-01T01:22:03;1.33;;;0.80;;
41964;SDS011;50120;53.250;8.702;2022-09-01T01:24:50;1.23;;;0.70;;
41964;SDS011;50120;53.250;8.702;2022-09-01T01:27:16;2.38;;;0.82;;
41964;SDS011;50120;53.250;8.702;2022-09-01T01:29:44;2.08;;;0.77;;
41964;SDS011;50120;53.250;8.702;2022-09-01T01:32:11;2.70;;;1.00;;
41964;SDS011;50120;53.250;8.702;2022-09-01T01:34:38;2.28;;;0.70;;
41964;SDS011;50120;53.250;8.702;2022-09-01T01:37:06;1.05;;;0.90;;
41964;SDS011;50120;53.250;8.702;2022-09-01T01:39:35;1.63;;;0.80;;
41964;SDS011;50120;53.250;8.702;2022-09-01T01:42:05;1.33;;;0.90;;
41964;SDS011;50120;53.250;8.702;2022-09-01T01:44:33;1.02;;;0.88;;
41964;SDS011;50120;53.250;8.702;2022-09-01T01:47:02;1.65;;;0.98;;
41964;SDS011;50120;53.250;8.702;2022-09-01T01:49:32;1.08;;;0.80;;
41964;SDS011;50120;53.250;8.702;2022-09-01T01:51:59;2.13;;;1.00;;
41964;SDS011;50120;53.250;8.702;2022-09-01T01:54:25;2.80;;;1.00;;
41964;SDS011;50120;53.250;8.702;2022-09-01T01:56:53;1.48;;;0.85;;
41964;SDS011;50120;53.250;8.702;2022-09-01T01:59:19;2.08;;;0.90;;
41964;SDS011;50120;53.250;8.702;2022-09-01T02:01:49;1.80;;;1.08;;
41964;SDS011;50120;53.250;8.702;2022-09-01T02:04:15;1.90;;;1.00;;
41964;SDS011;50120;53.250;8.702;2022-09-01T02:06:43;1.70;;;0.90;;
41964;SDS011;50120;53.250;8.702;2022-09-01T02:09:10;1.95;;;0.82;;
41964;SDS011;50120;53.250;8.702;2022-09-01T02:11:37;1.75;;;0.93;;
41964;SDS011;50120;53.250;8.702;2022-09-01T02:14:03;1.38;;;0.93;;
41964;SDS011;50120;53.250;8.702;2022-09-01T02:16:31;1.40;;;1.00;;
41964;SDS011;50120;53.250;8.702;2022-09-01T02:18:58;3.50;;;0.90;;
41964;SDS011;50120;53.250;8.702;2022-09-01T02:21:25;1.10;;;0.70;;
41964;SDS011;50120;53.250;8.702;2022-09-01T02:23:58;1.58;;;0.90;;
41964;SDS011;50120;53.250;8.702;2022-09-01T02:26:27;2.10;;;1.05;;
41964;SDS011;50120;53.250;8.702;2022-09-01T02:28:55;1.77;;;1.00;;
41964;SDS011;50120;53.250;8.702;2022-09-01T02:31:23;3.00;;;1.00;;
41964;SDS011;50120;53.250;8.702;2022-09-01T02:33:49;3.05;;;1.30;;
41964;SDS011;50120;53.250;8.702;2022-09-01T02:36:16;1.23;;;0.90;;
41964;SDS011;50120;53.250;8.702;2022-09-01T02:38:43;1.40;;;0.90;;
41964;SDS011;50120;53.250;8.702;2022-09-01T02:41:10;1.33;;;1.00;;
41964;SDS011;50120;53.250;8.702;2022-09-01T02:43:40;1.58;;;0.93;;
41964;SDS011;50120;53.250;8.702;2022-09-01T02:46:10;2.47;;;1.00;;
41964;SDS011;50120;53.250;8.702;2022-09-01T02:48:36;1.20;;;0.90;;
41964;SDS011;50120;53.250;8.702;2022-09-01T02:51:07;2.53;;;1.30;;
41964;SDS011;50120;53.250;8.702;2022-09-01T02:53:35;1.00;;;0.90;;
41964;SDS011;50120;53.250;8.702;2022-09-01T02:56:04;2.20;;;0.90;;
41964;SDS011;50120;53.250;8.702;2022-09-01T02:58:33;1.55;;;0.98;;
41964;SDS011;50120;53.250;8.702;2022-09-01T03:01:09;1.52;;;1.10;;
41964;SDS011;50120;53.250;8.702;2022-09-01T03:03:45;1.17;;;0.93;;
41964;SDS011;50120;53.250;8.702;2022-09-01T03:06:12;1.30;;;0.90;;
41964;SDS011;50120;53.250;8.702;2022-09-01T03:08:41;1.20;;;0.90;;
41964;SDS011;50120;53.250;8.702;2022-09-01T03:11:07;1.73;;;1.02;;
41964;SDS011;50120;53.250;8.702;2022-09-01T03:13:35;2.50;;;1.10;;
41964;SDS011;50120;53.250;8.702;2022-09-01T03:16:03;7.88;;;1.10;;
41964;SDS011;50120;53.250;8.702;2022-09-01T03:18:30;1.17;;;1.00;;
41964;SDS011;50120;53.250;8.702;2022-09-01T03:20:56;3.83;;;1.20;;
41964;SDS011;50120;53.250;8.702;2022-09-01T03:23:21;2.67;;;1.05;;
41964;SDS011;50120;53.250;8.702;2022-09-01T03:25:49;9.90;;;1.35;;
41964;SDS011;50120;53.250;8.702;2022-09-01T03:28:16;3.45;;;1.10;;
41964;SDS011;50120;53.250;8.702;2022-09-01T03:30:43;10.95;;;1.50;;
41964;SDS011;50120;53.250;8.702;2022-09-01T03:33:13;6.43;;;1.20;;
41964;SDS011;50120;53.250;8.702;2022-09-01T03:35:41;2.88;;;1.02;;
41964;SDS011;50120;53.250;8.702;2022-09-01T03:38:08;2.88;;;1.10;;
41964;SDS011;50120;53.250;8.702;2022-09-01T03:40:36;6.00;;;1.40;;
41964;SDS011;50120;53.250;8.702;2022-09-01T03:43:04;2.55;;;1.48;;
41964;SDS011;50120;53.250;8.702;2022-09-01T03:45:33;4.25;;;1.30;;
41964;SDS011;50120;53.250;8.702;2022-09-01T03:48:02;5.30;;;1.48;;
41964;SDS011;50120;53.250;8.702;2022-09-01T03:50:34;3.05;;;1.25;;
41964;SDS011;50120;53.250;8.702;2022-09-01T03:53:04;5.75;;;1.30;;
41964;SDS011;50120;53.250;8.702;2022-09-01T03:55:31;4.53;;;1.20;;
41964;SDS011;50120;53.250;8.702;2022-09-01T03:57:59;2.20;;;1.52;;
41964;SDS011;50120;53.250;8.702;2022-09-01T04:00:30;3.95;;;1.60;;
41964;SDS011;50120;53.250;8.702;2022-09-01T04:03:02;3.13;;;1.40;;
41964;SDS011;50120;53.250;8.702;2022-09-01T04:05:30;3.70;;;1.70;;
41964;SDS011;50120;53.250;8.702;2022-09-01T04:07:58;4.75;;;1.88;;
41964;SDS011;50120;53.250;8.702;2022-09-01T04:10:36;4.25;;;1.70;;
41964;SDS011;50120;53.250;8.702;2022-09-01T04:13:14;3.63;;;1.60;;
41964;SDS011;50120;53.250;8.702;2022-09-01T04:15:42;3.10;;;2.00;;
41964;SDS011;50120;53.250;8.702;2022-09-01T04:18:07;2.55;;;1.70;;
41964;SDS011;50120;53.250;8.702;2022-09-01T04:20:40;2.90;;;1.63;;
41964;SDS011;50120;53.250;8.702;2022-09-01T04:23:20;2.42;;;1.58;;
41964;SDS011;50120;53.250;8.702;2022-09-01T04:25:57;2.28;;;1.88;;
41964;SDS011;50120;53.250;8.702;2022-09-01T04:28:48;3.00;;;1.90;;
41964;SDS011;50120;53.250;8.702;2022-09-01T04:31:16;4.57;;;1.88;;
41964;SDS011;50120;53.250;8.702;2022-09-01T04:33:46;3.58;;;2.00;;
41964;SDS011;50120;53.250;8.702;2022-09-01T04:38:43;3.88;;;1.90;;
41964;SDS011;50120;53.250;8.702;2022-09-01T04:41:13;1.98;;;1.77;;
41964;SDS011;50120;53.250;8.702;2022-09-01T04:43:45;7.72;;;2.00;;
41964;SDS011;50120;53.250;8.702;2022-09-01T04:46:12;7.78;;;1.90;;
41964;SDS011;50120;53.250;8.702;2022-09-01T04:48:39;3.03;;;1.70;;
41964;SDS011;50120;53.250;8.702;2022-09-01T04:51:12;2.45;;;1.67;;
41964;SDS011;50120;53.250;8.702;2022-09-01T04:53:39;5.18;;;1.77;;
41964;SDS011;50120;53.250;8.702;2022-09-01T04:56:07;2.72;;;1.80;;
41964;SDS011;50120;53.250;8.702;2022-09-01T05:01:31;2.88;;;1.70;;
41964;SDS011;50120;53.250;8.702;2022-09-01T05:04:11;2.05;;;1.52;;
41964;SDS011;50120;53.250;8.702;2022-09-01T05:06:42;3.20;;;1.65;;
41964;SDS011;50120;53.250;8.702;2022-09-01T05:09:23;2.87;;;1.70;;
41964;SDS011;50120;53.250;8.702;2022-09-01T05:11:49;5.38;;;1.85;;
41964;SDS011;50120;53.250;8.702;2022-09-01T05:14:17;2.40;;;1.63;;
41964;SDS011;50120;53.250;8.702;2022-09-01T05:16:44;2.95;;;1.95;;
41964;SDS011;50120;53.250;8.702;2022-09-01T05:19:11;2.83;;;1.77;;
41964;SDS011;50120;53.250;8.702;2022-09-01T05:21:41;4.47;;;1.67;;
41964;SDS011;50120;53.250;8.702;2022-09-01T05:24:09;3.95;;;1.67;;
41964;SDS011;50120;53.250;8.702;2022-09-01T05:26:38;3.67;;;1.60;;
41964;SDS011;50120;53.250;8.702;2022-09-01T05:29:06;3.22;;;1.40;;
41964;SDS011;50120;53.250;8.702;2022-09-01T05:31:37;3.33;;;1.95;;
41964;SDS011;50120;53.250;8.702;2022-09-01T05:34:04;3.10;;;1.30;;
41964;SDS011;50120;53.250;8.702;2022-09-01T05:36:31;4.28;;;1.80;;
41964;SDS011;50120;53.250;8.702;2022-09-01T05:38:57;3.03;;;1.50;;
41964;SDS011;50120;53.250;8.702;2022-09-01T05:41:24;2.38;;;1.60;;
41964;SDS011;50120;53.250;8.702;2022-09-01T05:43:50;3.03;;;1.55;;
41964;SDS011;50120;53.250;8.702;2022-09-01T05:46:18;1.88;;;1.52;;
41964;SDS011;50120;53.250;8.702;2022-09-01T05:48:47;2.67;;;1.80;;
41964;SDS011;50120;53.250;8.702;2022-09-01T05:51:18;3.35;;;1.65;;
41964;SDS011;50120;53.250;8.702;2022-09-01T05:53:46;2.88;;;1.58;;
41964;SDS011;50120;53.250;8.702;2022-09-01T05:56:17;2.70;;;1.58;;
41964;SDS011;50120;53.250;8.702;2022-09-01T05:58:44;2.88;;;1.45;;
41964;SDS011;50120;53.250;8.702;2022-09-01T06:01:15;10.05;;;1.50;;
41964;SDS011;50120;53.250;8.702;2022-09-01T06:03:46;2.55;;;0.90;;
41964;SDS011;50120;53.250;8.702;2022-09-01T06:06:22;3.45;;;1.52;;
41964;SDS011;50120;53.250;8.702;2022-09-01T06:08:51;3.33;;;1.38;;
41964;SDS011;50120;53.250;8.702;2022-09-01T06:11:23;3.80;;;1.25;;
41964;SDS011;50120;53.250;8.702;2022-09-01T06:13:57;5.13;;;1.40;;
41964;SDS011;50120;53.250;8.702;2022-09-01T06:16:23;5.00;;;1.52;;
41964;SDS011;50120;53.250;8.702;2022-09-01T06:18:49;6.20;;;1.55;;
41964;SDS011;50120;53.250;8.702;2022-09-01T06:21:19;2.45;;;1.40;;
41964;SDS011;50120;53.250;8.702;2022-09-01T06:23:46;3.83;;;1.80;;
41964;SDS011;50120;53.250;8.702;2022-09-01T06:26:22;2.58;;;1.48;;
41964;SDS011;50120;53.250;8.702;2022-09-01T06:29:03;5.90;;;1.58;;
41964;SDS011;50120;53.250;8.702;2022-09-01T06:31:31;3.58;;;1.35;;
41964;SDS011;50120;53.250;8.702;2022-09-01T06:34:01;3.38;;;1.23;;
41964;SDS011;50120;53.250;8.702;2022-09-01T06:36:28;4.75;;;1.65;;
41964;SDS011;50120;53.250;8.702;2022-09-01T06:38:57;4.10;;;1.55;;
41964;SDS011;50120;53.250;8.702;2022-09-01T06:41:26;4.03;;;1.25;;
41964;SDS011;50120;53.250;8.702;2022-09-01T06:43:52;3.58;;;1.40;;
41964;SDS011;50120;53.250;8.702;2022-09-01T06:46:19;4.55;;;1.77;;
41964;SDS011;50120;53.250;8.702;2022-09-01T06:48:47;1.92;;;1.30;;
41964;SDS011;50120;53.250;8.702;2022-09-01T06:51:18;2.35;;;1.10;;
41964;SDS011;50120;53.250;8.702;2022-09-01T06:53:45;4.30;;;1.17;;
41964;SDS011;50120;53.250;8.702;2022-09-01T06:56:17;3.28;;;1.38;;
41964;SDS011;50120;53.250;8.702;2022-09-01T06:58:43;3.47;;;1.60;;
41964;SDS011;50120;53.250;8.702;2022-09-01T07:01:13;2.97;;;1.20;;
41964;SDS011;50120;53.250;8.702;2022-09-01T07:03:45;2.22;;;1.10;;
41964;SDS011;50120;53.250;8.702;2022-09-01T07:06:15;4.68;;;1.20;;
41964;SDS011;50120;53.250;8.702;2022-09-01T07:08:42;1.75;;;0.90;;
41964;SDS011;50120;53.250;8.702;2022-09-01T07:11:17;1.30;;;0.95;;
41964;SDS011;50120;53.250;8.702;2022-09-01T07:13:51;3.42;;;1.00;;
41964;SDS011;50120;53.250;8.702;2022-09-01T07:16:20;2.20;;;0.95;;
41964;SDS011;50120;53.250;8.702;2022-09-01T07:18:47;1.85;;;1.00;;
41964;SDS011;50120;53.250;8.702;2022-09-01T07:21:14;1.05;;;0.90;;
41964;SDS011;50120;53.250;8.702;2022-09-01T07:23:41;1.20;;;0.88;;
41964;SDS011;50120;53.250;8.702;2022-09-01T07:26:10;1.80;;;1.00;;
41964;SDS011;50120;53.250;8.702;2022-09-01T07:28:42;7.40;;;1.70;;
41964;SDS011;50120;53.250;8.702;2022-09-01T07:31:15;1.60;;;1.00;;
41964;SDS011;50120;53.250;8.702;2022-09-01T07:33:45;7.55;;;0.90;;
41964;SDS011;50120;53.250;8.702;2022-09-01T07:36:13;2.17;;;0.80;;
41964;SDS011;50120;53.250;8.702;2022-09-01T07:38:39;1.60;;;0.85;;
41964;SDS011;50120;53.250;8.702;2022-09-01T07:41:07;0.90;;;0.60;;
41964;SDS011;50120;53.250;8.702;2022-09-01T07:43:37;1.45;;;0.80;;
41964;SDS011;50120;53.250;8.702;2022-09-01T07:46:09;2.83;;;0.70;;
41964;SDS011;50120;53.250;8.702;2022-09-01T07:48:36;1.05;;;0.68;;
41964;SDS011;50120;53.250;8.702;2022-09-01T07:51:02;1.35;;;0.77;;
41964;SDS011;50120;53.250;8.702;2022-09-01T07:53:29;0.93;;;0.60;;
41964;SDS011;50120;53.250;8.702;2022-09-01T07:56:05;2.28;;;0.85;;
41964;SDS011;50120;53.250;8.702;2022-09-01T07:58:34;1.88;;;0.70;;
41964;SDS011;50120;53.250;8.702;2022-09-01T08:01:05;1.23;;;0.63;;
41964;SDS011;50120;53.250;8.702;2022-09-01T08:03:37;2.70;;;0.50;;
41964;SDS011;50120;53.250;8.702;2022-09-01T08:06:09;0.70;;;0.50;;
41964;SDS011;50120;53.250;8.702;2022-09-01T08:08:37;2.17;;;0.60;;
41964;SDS011;50120;53.250;8.702;2022-09-01T08:11:03;0.70;;;0.63;;
41964;SDS011;50120;53.250;8.702;2022-09-01T08:13:30;2.17;;;0.60;;
41964;SDS011;50120;53.250;8.702;2022-09-01T08:15:57;0.55;;;0.50;;
41964;SDS011;50120;53.250;8.702;2022-09-01T08:18:23;0.80;;;0.60;;
41964;SDS011;50120;53.250;8.702;2022-09-01T08:20:48;1.50;;;0.60;;
41964;SDS011;50120;53.250;8.702;2022-09-01T08:23:16;9.57;;;0.90;;
41964;SDS011;50120;53.250;8.702;2022-09-01T08:25:44;2.42;;;0.47;;
41964;SDS011;50120;53.250;8.702;2022-09-01T08:28:11;2.15;;;0.40;;
41964;SDS011;50120;53.250;8.702;2022-09-01T08:30:39;1.05;;;0.95;;
41964;SDS011;50120;53.250;8.702;2022-09-01T08:33:06;1.75;;;0.60;;
41964;SDS011;50120;53.250;8.702;2022-09-01T08:35:45;0.60;;;0.50;;
41964;SDS011;50120;53.250;8.702;2022-09-01T08:38:12;1.08;;;0.60;;
41964;SDS011;50120;53.250;8.702;2022-09-01T08:40:39;3.53;;;1.30;;
41964;SDS011;50120;53.250;8.702;2022-09-01T08:45:57;1.88;;;0.70;;
41964;SDS011;50120;53.250;8.702;2022-09-01T08:51:14;0.60;;;0.60;;
41964;SDS011;50120;53.250;8.702;2022-09-01T08:53:53;2.50;;;0.70;;
41964;SDS011;50120;53.250;8.702;2022-09-01T08:56:25;1.60;;;0.50;;
41964;SDS011;50120;53.250;8.702;2022-09-01T08:58:51;1.13;;;0.60;;
41964;SDS011;50120;53.250;8.702;2022-09-01T09:01:30;2.15;;;0.60;;
41964;SDS011;50120;53.250;8.702;2022-09-01T09:07:08;1.08;;;0.50;;
41964;SDS011;50120;53.250;8.702;2022-09-01T09:09:56;0.77;;;0.52;;
41964;SDS011;50120;53.250;8.702;2022-09-01T09:15:02;1.02;;;0.50;;
41964;SDS011;50120;53.250;8.702;2022-09-01T09:17:43;0.60;;;0.40;;
41964;SDS011;50120;53.250;8.702;2022-09-01T09:20:17;0.70;;;0.40;;
41964;SDS011;50120;53.250;8.702;2022-09-01T09:22:43;0.60;;;0.40;;
41964;SDS011;50120;53.250;8.702;2022-09-01T09:25:12;0.98;;;0.32;;
41964;SDS011;50120;53.250;8.702;2022-09-01T09:27:42;2.15;;;0.40;;
41964;SDS011;50120;53.250;8.702;2022-09-01T09:30:11;0.35;;;0.30;;
41964;SDS011;50120;53.250;8.702;2022-09-01T09:32:52;0.95;;;0.50;;
41964;SDS011;50120;53.250;8.702;2022-09-01T09:37:56;0.73;;;0.40;;
41964;SDS011;50120;53.250;8.702;2022-09-01T09:43:34;2.33;;;0.40;;
41964;SDS011;50120;53.250;8.702;2022-09-01T09:46:23;4.28;;;0.60;;
41964;SDS011;50120;53.250;8.702;2022-09-01T09:49:06;2.10;;;0.40;;
41964;SDS011;50120;53.250;8.702;2022-09-01T09:51:33;0.50;;;0.50;;
41964;SDS011;50120;53.250;8.702;2022-09-01T09:54:16;3.00;;;0.40;;
41964;SDS011;50120;53.250;8.702;2022-09-01T09:56:45;0.88;;;0.57;;
41964;SDS011;50120;53.250;8.702;2022-09-01T09:59:22;0.55;;;0.35;;
41964;SDS011;50120;53.250;8.702;2022-09-01T10:02:06;0.73;;;0.60;;
41964;SDS011;50120;53.250;8.702;2022-09-01T10:04:51;2.20;;;0.50;;
41964;SDS011;50120;53.250;8.702;2022-09-01T10:07:22;0.63;;;0.40;;
41964;SDS011;50120;53.250;8.702;2022-09-01T10:10:00;0.88;;;0.45;;
41964;SDS011;50120;53.250;8.702;2022-09-01T10:12:30;2.20;;;0.40;;
41964;SDS011;50120;53.250;8.702;2022-09-01T10:14:59;0.88;;;0.63;;
41964;SDS011;50120;53.250;8.702;2022-09-01T10:17:31;0.30;;;0.30;;
41964;SDS011;50120;53.250;8.702;2022-09-01T10:20:07;2.08;;;1.02;;
41964;SDS011;50120;53.250;8.702;2022-09-01T10:22:42;0.82;;;0.45;;
41964;SDS011;50120;53.250;8.702;2022-09-01T10:25:10;1.95;;;0.35;;
41964;SDS011;50120;53.250;8.702;2022-09-01T10:27:42;5.57;;;0.70;;
41964;SDS011;50120;53.250;8.702;2022-09-01T10:30:13;0.60;;;0.40;;
41964;SDS011;50120;53.250;8.702;2022-09-01T10:32:49;0.68;;;0.50;;
41964;SDS011;50120;53.250;8.702;2022-09-01T10:35:16;2.28;;;0.40;;
41964;SDS011;50120;53.250;8.702;2022-09-01T10:37:54;1.17;;;0.35;;
41964;SDS011;50120;53.250;8.702;2022-09-01T10:42:52;2.28;;;0.50;;
41964;SDS011;50120;53.250;8.702;2022-09-01T10:45:59;0.50;;;0.40;;
41964;SDS011;50120;53.250;8.702;2022-09-01T10:48:44;0.47;;;0.43;;
41964;SDS011;50120;53.250;8.702;2022-09-01T10:58:49;0.52;;;0.50;;
41964;SDS011;50120;53.250;8.702;2022-09-01T11:04:10;0.88;;;0.35;;
41964;SDS011;50120;53.250;8.702;2022-09-01T11:06:51;1.52;;;0.40;;
41964;SDS011;50120;53.250;8.702;2022-09-01T11:09:30;3.42;;;0.60;;
41964;SDS011;50120;53.250;8.702;2022-09-01T11:12:09;0.70;;;0.30;;
41964;SDS011;50120;53.250;8.702;2022-09-01T11:14:58;0.93;;;0.40;;
41964;SDS011;50120;53.250;8.702;2022-09-01T11:20:27;1.20;;;0.43;;
41964;SDS011;50120;53.250;8.702;2022-09-01T11:23:09;0.85;;;0.40;;
41964;SDS011;50120;53.250;8.702;2022-09-01T11:25:59;11.32;;;0.85;;
41964;SDS011;50120;53.250;8.702;2022-09-01T11:30:58;0.60;;;0.38;;
41964;SDS011;50120;53.250;8.702;2022-09-01T11:38:48;3.63;;;0.38;;
41964;SDS011;50120;53.250;8.702;2022-09-01T11:41:20;2.20;;;0.40;;
41964;SDS011;50120;53.250;8.702;2022-09-01T11:43:57;3.03;;;0.50;;
41964;SDS011;50120;53.250;8.702;2022-09-01T11:46:30;2.00;;;0.40;;
41964;SDS011;50120;53.250;8.702;2022-09-01T11:51:27;0.50;;;0.30;;
41964;SDS011;50120;53.250;8.702;2022-09-01T11:54:06;0.50;;;0.30;;
41964;SDS011;50120;53.250;8.702;2022-09-01T11:56:31;0.40;;;0.30;;
41964;SDS011;50120;53.250;8.702;2022-09-01T11:58:57;1.75;;;0.50;;
41964;SDS011;50120;53.250;8.702;2022-09-01T12:03:54;0.88;;;0.40;;
41964;SDS011;50120;53.250;8.702;2022-09-01T12:06:26;0.52;;;0.30;;
41964;SDS011;50120;53.250;8.702;2022-09-01T12:08:57;2.08;;;0.40;;
41964;SDS011;50120;53.250;8.702;2022-09-01T12:11:44;0.52;;;0.30;;
41964;SDS011;50120;53.250;8.702;2022-09-01T12:14:10;1.20;;;0.50;;
41964;SDS011;50120;53.250;8.702;2022-09-01T12:16:43;0.57;;;0.40;;
41964;SDS011;50120;53.250;8.702;2022-09-01T12:19:21;0.75;;;0.40;;
41964;SDS011;50120;53.250;8.702;2022-09-01T12:21:55;1.73;;;0.50;;
41964;SDS011;50120;53.250;8.702;2022-09-01T12:24:25;1.92;;;0.50;;
41964;SDS011;50120;53.250;8.702;2022-09-01T12:26:52;1.33;;;0.40;;
41964;SDS011;50120;53.250;8.702;2022-09-01T12:29:20;0.50;;;0.40;;
41964;SDS011;50120;53.250;8.702;2022-09-01T12:31:47;0.47;;;0.40;;
41964;SDS011;50120;53.250;8.702;2022-09-01T12:34:23;1.15;;;0.60;;
41964;SDS011;50120;53.250;8.702;2022-09-01T12:44:48;2.03;;;0.50;;
41964;SDS011;50120;53.250;8.702;2022-09-01T12:52:27;0.65;;;0.60;;
41964;SDS011;50120;53.250;8.702;2022-09-01T12:55:09;1.75;;;0.60;;
41964;SDS011;50120;53.250;8.702;2022-09-01T12:57:45;1.17;;;0.40;;
41964;SDS011;50120;53.250;8.702;2022-09-01T13:05:20;0.45;;;0.40;;
41964;SDS011;50120;53.250;8.702;2022-09-01T13:07:48;3.20;;;0.40;;
41964;SDS011;50120;53.250;8.702;2022-09-01T13:10:16;0.40;;;0.30;;
41964;SDS011;50120;53.250;8.702;2022-09-01T13:12:46;1.60;;;0.40;;
41964;SDS011;50120;53.250;8.702;2022-09-01T13:15:12;0.77;;;0.45;;
41964;SDS011;50120;53.250;8.702;2022-09-01T13:17:38;1.17;;;0.50;;
41964;SDS011;50120;53.250;8.702;2022-09-01T13:20:04;1.33;;;0.50;;
41964;SDS011;50120;53.250;8.702;2022-09-01T13:22:31;1.55;;;0.40;;
41964;SDS011;50120;53.250;8.702;2022-09-01T13:24:58;0.55;;;0.30;;
41964;SDS011;50120;53.250;8.702;2022-09-01T13:27:24;3.80;;;0.40;;
41964;SDS011;50120;53.250;8.702;2022-09-01T13:29:50;1.05;;;0.38;;
41964;SDS011;50120;53.250;8.702;2022-09-01T13:32:17;0.65;;;0.40;;
41964;SDS011;50120;53.250;8.702;2022-09-01T13:34:43;0.90;;;0.35;;
41964;SDS011;50120;53.250;8.702;2022-09-01T13:37:09;1.25;;;0.50;;
41964;SDS011;50120;53.250;8.702;2022-09-01T13:39:35;1.85;;;0.40;;
41964;SDS011;50120;53.250;8.702;2022-09-01T13:42:00;2.90;;;0.40;;
41964;SDS011;50120;53.250;8.702;2022-09-01T13:44:26;0.70;;;0.40;;
41964;SDS011;50120;53.250;8.702;2022-09-01T13:46:52;0.98;;;0.40;;
41964;SDS011;50120;53.250;8.702;2022-09-01T13:49:19;0.93;;;0.47;;
41964;SDS011;50120;53.250;8.702;2022-09-01T13:51:49;0.90;;;0.40;;
41964;SDS011;50120;53.250;8.702;2022-09-01T13:54:16;0.38;;;0.38;;
41964;SDS011;50120;53.250;8.702;2022-09-01T13:56:42;1.20;;;0.40;;
41964;SDS011;50120;53.250;8.702;2022-09-01T13:59:08;0.50;;;0.50;;
41964;SDS011;50120;53.250;8.702;2022-09-01T14:01:33;0.40;;;0.40;;
41964;SDS011;50120;53.250;8.702;2022-09-01T14:03:59;1.70;;;0.50;;
41964;SDS011;50120;53.250;8.702;2022-09-01T14:06:27;0.40;;;0.40;;
41964;SDS011;50120;53.250;8.702;2022-09-01T14:08:53;0.70;;;0.40;;
41964;SDS011;50120;53.250;8.702;2022-09-01T14:11:19;2.45;;;1.13;;
41964;SDS011;50120;53.250;8.702;2022-09-01T14:13:45;0.98;;;0.60;;
41964;SDS011;50120;53.250;8.702;2022-09-01T14:16:12;1.85;;;0.60;;
41964;SDS011;50120;53.250;8.702;2022-09-01T14:18:39;0.60;;;0.38;;
41964;SDS011;50120;53.250;8.702;2022-09-01T14:21:09;0.73;;;0.40;;
41964;SDS011;50120;53.250;8.702;2022-09-01T14:23:36;0.88;;;0.50;;
41964;SDS011;50120;53.250;8.702;2022-09-01T14:26:06;2.28;;;0.50;;
41964;SDS011;50120;53.250;8.702;2022-09-01T14:28:35;0.77;;;0.32;;
41964;SDS011;50120;53.250;8.702;2022-09-01T14:31:06;0.60;;;0.40;;
41964;SDS011;50120;53.250;8.702;2022-09-01T14:33:33;1.20;;;0.47;;
41964;SDS011;50120;53.250;8.702;2022-09-01T14:36:00;1.02;;;0.40;;
41964;SDS011;50120;53.250;8.702;2022-09-01T14:38:26;5.15;;;0.50;;
41964;SDS011;50120;53.250;8.702;2022-09-01T14:40:52;0.63;;;0.47;;
41964;SDS011;50120;53.250;8.702;2022-09-01T14:43:18;0.52;;;0.40;;
41964;SDS011;50120;53.250;8.702;2022-09-01T14:45:45;2.92;;;0.70;;
41964;SDS011;50120;53.250;8.702;2022-09-01T14:48:13;2.80;;;0.40;;
41964;SDS011;50120;53.250;8.702;2022-09-01T14:50:41;2.78;;;0.50;;
41964;SDS011;50120;53.250;8.702;2022-09-01T14:53:09;0.75;;;0.40;;
41964;SDS011;50120;53.250;8.702;2022-09-01T14:55:35;1.85;;;0.50;;
41964;SDS011;50120;53.250;8.702;2022-09-01T14:58:01;1.98;;;0.40;;
41964;SDS011;50120;53.250;8.702;2022-09-01T15:00:27;0.30;;;0.30;;
41964;SDS011;50120;53.250;8.702;2022-09-01T15:02:55;3.33;;;0.40;;
41964;SDS011;50120;53.250;8.702;2022-09-01T15:05:22;0.50;;;0.50;;
41964;SDS011;50120;53.250;8.702;2022-09-01T15:07:49;2.08;;;0.70;;
41964;SDS011;50120;53.250;8.702;2022-09-01T15:10:16;8.70;;;0.50;;
41964;SDS011;50120;53.250;8.702;2022-09-01T15:12:43;1.45;;;0.90;;
41964;SDS011;50120;53.250;8.702;2022-09-01T15:15:09;0.70;;;0.60;;
41964;SDS011;50120;53.250;8.702;2022-09-01T15:17:35;2.67;;;0.68;;
41964;SDS011;50120;53.250;8.702;2022-09-01T15:20:02;2.25;;;0.50;;
41964;SDS011;50120;53.250;8.702;2022-09-01T15:22:48;0.70;;;0.40;;
41964;SDS011;50120;53.250;8.702;2022-09-01T15:25:16;0.70;;;0.40;;
41964;SDS011;50120;53.250;8.702;2022-09-01T15:27:41;0.80;;;0.40;;
41964;SDS011;50120;53.250;8.702;2022-09-01T15:30:07;2.35;;;1.00;;
41964;SDS011;50120;53.250;8.702;2022-09-01T15:32:42;4.72;;;0.73;;
41964;SDS011;50120;53.250;8.702;2022-09-01T15:35:09;0.85;;;0.40;;
41964;SDS011;50120;53.250;8.702;2022-09-01T15:37:35;0.75;;;0.40;;
41964;SDS011;50120;53.250;8.702;2022-09-01T15:40:02;1.30;;;0.47;;
41964;SDS011;50120;53.250;8.702;2022-09-01T15:42:28;9.27;;;0.77;;
41964;SDS011;50120;53.250;8.702;2022-09-01T15:44:54;0.57;;;0.50;;
41964;SDS011;50120;53.250;8.702;2022-09-01T15:47:19;0.93;;;0.52;;
41964;SDS011;50120;53.250;8.702;2022-09-01T15:49:45;0.30;;;0.30;;
41964;SDS011;50120;53.250;8.702;2022-09-01T15:52:11;0.50;;;0.35;;
41964;SDS011;50120;53.250;8.702;2022-09-01T15:54:37;1.95;;;0.40;;
41964;SDS011;50120;53.250;8.702;2022-09-01T15:57:03;1.23;;;0.35;;
41964;SDS011;50120;53.250;8.702;2022-09-01T15:59:30;1.52;;;0.40;;
41964;SDS011;50120;53.250;8.702;2022-09-01T16:01:57;1.20;;;0.60;;
41964;SDS011;50120;53.250;8.702;2022-09-01T16:04:22;1.42;;;0.55;;
41964;SDS011;50120;53.250;8.702;2022-09-01T16:06:48;1.27;;;0.30;;
41964;SDS011;50120;53.250;8.702;2022-09-01T16:09:15;1.10;;;0.50;;
41964;SDS011;50120;53.250;8.702;2022-09-01T16:11:42;0.45;;;0.43;;
41964;SDS011;50120;53.250;8.702;2022-09-01T16:14:08;2.65;;;0.55;;
41964;SDS011;50120;53.250;8.702;2022-09-01T16:24:17;0.50;;;0.40;;
41964;SDS011;50120;53.250;8.702;2022-09-01T16:26:43;6.15;;;0.60;;
41964;SDS011;50120;53.250;8.702;2022-09-01T16:29:16;3.03;;;0.40;;